createdAt,value
2023-10-19T07:05:31.724Z,10.84
2023-10-19T07:08:00.864Z,10.96
2023-10-19T07:10:29.235Z,10.89
2023-10-19T07:12:58.934Z,11.02
2023-10-19T07:15:30.866Z,11.05
2023-10-19T07:17:59.354Z,11.04
2023-10-19T07:20:32.879Z,11.00
2023-10-19T07:23:08.114Z,11.00
2023-10-19T07:25:44.038Z,11.07
2023-10-19T07:28:11.742Z,11.20
2023-10-19T07:30:39.324Z,11.35
2023-10-19T07:33:06.917Z,11.38
2023-10-19T07:35:38.762Z,11.27
2023-10-19T07:38:08.710Z,11.38
2023-10-19T07:40:39.921Z,11.36
2023-10-19T07:43:09.763Z,11.39
2023-10-19T07:45:38.063Z,11.51
2023-10-19T07:48:08.626Z,11.52
2023-10-19T07:50:37.182Z,11.82
2023-10-19T07:53:05.638Z,11.87
2023-10-19T07:55:34.991Z,12.05
2023-10-19T07:58:04.432Z,12.30
2023-10-19T08:00:34.834Z,12.50
2023-10-19T08:03:04.952Z,12.66
2023-10-19T08:05:34.609Z,13.00
2023-10-19T08:08:06.774Z,13.23
2023-10-19T08:10:38.736Z,13.41
2023-10-19T08:13:06.339Z,13.58
2023-10-19T08:15:33.964Z,13.63
2023-10-19T08:18:02.240Z,13.67
2023-10-19T08:20:33.334Z,13.74
2023-10-19T08:23:04.059Z,13.87
2023-10-19T08:28:04.450Z,14.10
2023-10-19T08:30:32.032Z,14.39
2023-10-19T08:32:59.709Z,14.63
2023-10-19T08:35:28.650Z,14.91
2023-10-19T08:38:00.627Z,14.94
2023-10-19T08:40:34.488Z,14.92
2023-10-19T08:43:02.047Z,15.06
2023-10-19T08:45:31.716Z,15.22
2023-10-19T08:48:06.118Z,15.22
2023-10-19T08:50:42.512Z,15.25
2023-10-19T08:53:14.899Z,15.24
2023-10-19T08:55:50.154Z,15.45
2023-10-19T08:58:20.083Z,15.46
2023-10-19T09:00:52.830Z,15.36
2023-10-19T09:03:21.154Z,15.29
2023-10-19T09:05:49.299Z,15.49
2023-10-19T09:08:21.271Z,15.53
2023-10-19T09:10:53.146Z,15.82
2023-10-19T09:13:23.945Z,16.55
2023-10-19T09:15:56.479Z,16.88
2023-10-19T09:18:28.586Z,16.92
2023-10-19T09:20:57.564Z,16.85
2023-10-19T09:23:29.058Z,16.92
2023-10-19T09:25:58.637Z,16.54
2023-10-19T09:28:26.876Z,16.77
2023-10-19T09:30:55.723Z,16.76
2023-10-19T09:33:26.551Z,16.53
2023-10-19T09:35:57.221Z,16.59
2023-10-19T09:38:26.062Z,17.07
2023-10-19T09:40:55.877Z,17.57
2023-10-19T09:43:33.300Z,17.93
2023-10-19T09:46:08.714Z,18.02
2023-10-19T09:48:42.913Z,17.57
2023-10-19T09:51:16.669Z,17.40
2023-10-19T09:53:49.142Z,17.16
2023-10-19T09:56:23.203Z,17.09
2023-10-19T09:58:54.950Z,17.60
2023-10-19T10:01:24.401Z,17.72
2023-10-19T10:03:53.351Z,18.00
2023-10-19T10:06:32.980Z,18.40
2023-10-19T10:09:04.583Z,18.49
2023-10-19T10:11:32.089Z,18.20
2023-10-19T10:14:01.208Z,18.17
2023-10-19T10:16:32.042Z,18.04
2023-10-19T10:19:01.306Z,17.80
2023-10-19T10:21:30.874Z,17.98
2023-10-19T10:24:00.338Z,17.97
2023-10-19T10:26:30.822Z,17.92
2023-10-19T10:29:14.445Z,18.19
2023-10-19T10:31:48.380Z,18.56
2023-10-19T10:34:50.193Z,18.97
2023-10-19T10:37:18.472Z,18.82
2023-10-19T10:39:48.822Z,18.68
2023-10-19T10:42:18.781Z,18.68
2023-10-19T10:44:47.317Z,18.85
2023-10-19T10:47:18.713Z,18.54
2023-10-19T10:49:55.673Z,17.94
2023-10-19T10:52:31.072Z,17.39
2023-10-19T10:54:59.510Z,17.07
2023-10-19T10:57:34.052Z,17.04
2023-10-19T11:00:07.730Z,17.22
2023-10-19T11:02:37.388Z,17.52
2023-10-19T11:05:12.857Z,17.56
2023-10-19T11:07:41.903Z,17.88
2023-10-19T11:10:11.126Z,18.23
2023-10-19T11:12:40.652Z,18.25
2023-10-19T11:15:11.607Z,18.08
2023-10-19T11:17:46.693Z,17.85
2023-10-19T11:20:23.352Z,18.30
2023-10-19T11:22:51.966Z,18.38
2023-10-19T11:25:20.280Z,18.80
2023-10-19T11:27:48.527Z,19.11
2023-10-19T11:30:25.632Z,19.76
2023-10-19T11:32:57.804Z,19.73
2023-10-19T11:35:26.674Z,20.11
2023-10-19T11:37:55.368Z,19.90
2023-10-19T11:40:23.786Z,19.65
2023-10-19T11:42:51.869Z,19.68
2023-10-19T11:45:20.044Z,19.43
2023-10-19T11:47:48.083Z,19.55
2023-10-19T11:50:20.131Z,19.45
2023-10-19T11:52:48.743Z,19.71
2023-10-19T11:55:16.841Z,20.04
2023-10-19T11:57:45.566Z,20.41
2023-10-19T12:00:22.847Z,20.59
2023-10-19T12:02:50.558Z,20.40
2023-10-19T12:05:19.625Z,20.95
2023-10-19T12:07:47.211Z,22.06
2023-10-19T12:10:14.774Z,23.22
2023-10-19T12:12:58.217Z,23.54
2023-10-19T12:15:29.735Z,23.00
2023-10-19T12:17:57.324Z,21.96
2023-10-19T12:20:27.318Z,21.36
2023-10-19T12:23:01.975Z,20.02
2023-10-19T12:25:50.056Z,19.68
2023-10-19T12:28:20.710Z,20.07
2023-10-19T12:30:48.966Z,20.71
2023-10-19T12:33:16.594Z,21.12
2023-10-19T12:35:52.303Z,21.11
2023-10-19T12:38:21.272Z,21.69
2023-10-19T12:40:56.774Z,22.77
2023-10-19T12:43:26.958Z,23.03
2023-10-19T12:45:55.635Z,22.96
2023-10-19T12:48:26.513Z,22.79
2023-10-19T12:50:55.696Z,23.43
2023-10-19T12:53:25.834Z,23.46
2023-10-19T12:55:55.557Z,24.31
2023-10-19T12:58:23.235Z,24.39
2023-10-19T13:00:53.019Z,24.31
2023-10-19T13:03:24.502Z,24.54
2023-10-19T13:05:54.255Z,24.55
2023-10-19T13:08:23.121Z,23.96
2023-10-19T13:10:53.272Z,23.22
2023-10-19T13:13:23.831Z,22.76
2023-10-19T13:15:54.461Z,22.21
2023-10-19T13:18:22.715Z,21.89
2023-10-19T13:20:50.712Z,21.51
2023-10-19T13:23:22.552Z,21.19
2023-10-19T13:25:54.455Z,20.93
2023-10-19T13:28:23.450Z,20.81
2023-10-19T13:30:54.175Z,20.51
2023-10-19T13:33:22.968Z,20.20
2023-10-19T13:35:51.765Z,19.96
2023-10-19T13:38:21.728Z,19.59
2023-10-19T13:40:50.682Z,19.43
2023-10-19T13:43:20.510Z,19.36
2023-10-19T13:45:54.132Z,19.08
2023-10-19T13:48:21.852Z,18.97
2023-10-19T13:50:50.610Z,18.97
2023-10-19T13:53:18.411Z,19.28
2023-10-19T13:55:46.918Z,19.90
2023-10-19T13:58:18.804Z,20.59
2023-10-19T14:00:46.331Z,21.53
2023-10-19T14:03:14.761Z,22.25
2023-10-19T14:05:48.542Z,22.71
2023-10-19T14:08:22.035Z,22.47
2023-10-19T14:10:55.067Z,22.51
2023-10-19T14:13:25.714Z,21.65
2023-10-19T14:15:57.022Z,21.05
2023-10-19T14:18:26.405Z,20.25
2023-10-19T14:20:56.140Z,19.56
2023-10-19T14:23:25.658Z,19.37
2023-10-19T14:25:53.213Z,19.03
2023-10-19T14:28:21.107Z,18.91
2023-10-19T14:30:52.786Z,18.73
2023-10-19T14:33:23.500Z,18.64
2023-10-19T14:35:54.895Z,18.47
2023-10-19T14:38:29.304Z,18.52
2023-10-19T14:40:56.866Z,18.63
2023-10-19T14:43:26.781Z,18.99
2023-10-19T14:45:58.640Z,19.07
2023-10-19T14:48:30.226Z,19.43
2023-10-19T14:51:08.559Z,19.70
2023-10-19T14:53:39.268Z,19.96
2023-10-19T14:56:08.850Z,19.89
2023-10-19T14:58:38.595Z,19.62
2023-10-19T15:01:21.852Z,19.37
2023-10-19T15:03:51.650Z,18.95
2023-10-19T15:06:19.628Z,18.98
2023-10-19T15:08:47.189Z,19.08
2023-10-19T15:11:19.115Z,18.68
2023-10-19T15:13:47.206Z,18.60
2023-10-19T15:16:20.352Z,17.99
2023-10-19T15:18:50.966Z,18.39
2023-10-19T15:21:18.535Z,18.34
2023-10-19T15:23:47.128Z,17.87
2023-10-19T15:26:18.853Z,17.89
2023-10-19T15:28:49.474Z,17.66
2023-10-19T15:31:23.371Z,17.46
2023-10-19T15:33:50.955Z,17.18
2023-10-19T15:36:18.459Z,17.30
2023-10-19T15:38:46.787Z,16.95
2023-10-19T15:41:16.760Z,16.99
2023-10-19T15:43:44.441Z,16.92
2023-10-19T15:46:16.761Z,16.74
2023-10-19T15:48:45.770Z,16.81
2023-10-19T15:51:15.158Z,16.74
2023-10-19T15:53:42.683Z,16.70
2023-10-19T15:56:10.223Z,16.74
2023-10-19T15:58:37.723Z,16.92
2023-10-19T16:01:08.978Z,16.91
2023-10-19T16:03:37.815Z,16.80
2023-10-19T16:06:07.433Z,16.73
2023-10-19T16:08:39.114Z,16.61
2023-10-19T16:11:11.049Z,16.29
2023-10-19T16:13:42.930Z,16.10
2023-10-19T16:16:13.514Z,15.98
2023-10-19T16:18:41.130Z,15.91
2023-10-19T16:21:09.943Z,15.68
2023-10-19T16:23:37.562Z,15.60
2023-10-19T16:26:06.875Z,15.57
2023-10-19T16:28:36.229Z,15.45
2023-10-19T16:31:05.229Z,15.32
2023-10-19T16:33:32.775Z,15.28
2023-10-19T16:36:00.268Z,15.16
2023-10-19T16:38:29.524Z,15.14
2023-10-19T16:41:03.358Z,14.92
2023-10-19T16:43:32.184Z,14.83
2023-10-19T16:46:03.485Z,14.99
2023-10-19T16:48:37.864Z,14.92
2023-10-19T16:51:07.543Z,14.82
2023-10-19T16:53:37.435Z,14.85
2023-10-19T16:56:06.539Z,14.73
2023-10-19T16:58:34.064Z,14.70
2023-10-19T17:01:02.608Z,14.58
2023-10-19T17:03:32.080Z,14.76
2023-10-19T17:06:02.656Z,14.73
2023-10-19T17:08:32.062Z,14.60
2023-10-19T17:11:02.920Z,14.60
2023-10-19T17:13:30.716Z,14.46
2023-10-19T17:15:59.501Z,14.54
2023-10-19T17:18:27.391Z,14.61
2023-10-19T17:20:59.595Z,14.70
2023-10-19T17:23:35.858Z,14.47
2023-10-19T17:26:04.762Z,14.24
2023-10-19T17:28:37.931Z,14.17
2023-10-19T17:31:06.642Z,14.37
2023-10-19T17:33:41.741Z,14.32
2023-10-19T17:36:09.339Z,14.22
2023-10-19T17:38:42.842Z,14.36
2023-10-19T17:41:13.402Z,14.40
2023-10-19T17:43:44.481Z,14.49
2023-10-19T17:46:17.064Z,14.51
2023-10-19T17:48:49.565Z,14.45
2023-10-19T17:51:19.399Z,14.34
2023-10-19T17:53:48.789Z,14.50
2023-10-19T17:56:20.787Z,14.42
2023-10-19T17:58:50.873Z,14.38
2023-10-19T18:01:22.700Z,14.37
2023-10-19T18:03:53.028Z,14.22
2023-10-19T18:06:20.607Z,14.15
2023-10-19T18:08:48.487Z,14.19
2023-10-19T18:11:18.390Z,13.97
2023-10-19T18:13:47.158Z,13.94
2023-10-19T18:16:21.507Z,13.94
2023-10-19T18:18:51.023Z,13.76
2023-10-19T18:21:24.310Z,13.49
2023-10-19T18:23:52.239Z,13.69
2023-10-19T18:26:26.436Z,13.56
2023-10-19T18:28:54.016Z,13.79
2023-10-19T18:31:26.509Z,13.73
2023-10-19T18:33:57.919Z,13.72
2023-10-19T18:36:35.657Z,13.48
2023-10-19T18:39:03.983Z,13.73
2023-10-19T18:41:32.851Z,13.57
2023-10-19T18:44:04.094Z,13.67
2023-10-19T18:46:31.698Z,13.69
2023-10-19T18:49:00.930Z,13.50
2023-10-19T18:51:31.759Z,13.53
2023-10-19T18:53:59.956Z,13.50
2023-10-19T18:56:27.730Z,13.38
2023-10-19T18:58:57.897Z,13.33
2023-10-19T19:01:25.542Z,13.29
2023-10-19T19:04:01.061Z,13.16
2023-10-19T19:06:34.345Z,13.31
2023-10-19T19:09:12.866Z,13.15
2023-10-19T19:11:43.250Z,13.22
2023-10-19T19:14:12.204Z,13.34
2023-10-19T19:16:40.156Z,13.47
2023-10-19T19:19:07.775Z,13.40
2023-10-19T19:21:36.204Z,13.33
2023-10-19T19:24:06.237Z,13.46
2023-10-19T19:26:36.462Z,13.49
2023-10-19T19:29:06.064Z,13.46
2023-10-19T19:31:42.238Z,13.35
2023-10-19T19:34:11.117Z,13.38
2023-10-19T19:36:45.222Z,13.34
2023-10-19T19:39:19.594Z,13.40
2023-10-19T19:41:47.837Z,13.14
2023-10-19T19:44:15.457Z,13.27
2023-10-19T19:46:47.194Z,13.44
2023-10-19T19:49:19.512Z,13.30
2023-10-19T19:51:52.864Z,13.12
2023-10-19T19:54:25.294Z,13.27
2023-10-19T19:56:54.059Z,13.30
2023-10-19T19:59:26.670Z,12.75
2023-10-19T20:01:57.862Z,13.26
2023-10-19T20:04:27.235Z,13.25
2023-10-19T20:06:58.919Z,13.14
2023-10-19T20:09:33.167Z,12.82
2023-10-19T20:12:05.705Z,13.07
2023-10-19T20:14:34.064Z,12.98
2023-10-19T20:17:05.860Z,12.78
2023-10-19T20:19:39.088Z,12.87
2023-10-19T20:22:09.054Z,12.83
2023-10-19T20:24:36.648Z,12.70
2023-10-19T20:27:06.346Z,12.69
2023-10-19T20:29:37.121Z,12.55
2023-10-19T20:32:06.790Z,12.58
2023-10-19T20:34:34.526Z,12.50
2023-10-19T20:37:02.393Z,12.45
2023-10-19T20:39:32.334Z,12.48
2023-10-19T20:42:06.356Z,12.55
2023-10-19T20:44:41.003Z,12.57
2023-10-19T20:47:12.413Z,12.69
2023-10-19T20:49:40.688Z,12.59
2023-10-19T20:52:09.049Z,12.74
2023-10-19T20:54:36.678Z,12.73
2023-10-19T20:57:10.026Z,12.59
2023-10-19T20:59:40.587Z,12.72
2023-10-19T21:02:11.180Z,12.56
2023-10-19T21:04:40.100Z,12.66
2023-10-19T21:07:12.147Z,12.67
2023-10-19T21:09:46.958Z,12.66
2023-10-19T21:12:18.374Z,12.68
2023-10-19T21:14:47.826Z,12.60
2023-10-19T21:17:19.166Z,12.53
2023-10-19T21:19:50.294Z,12.54
2023-10-19T21:22:23.765Z,12.41
2023-10-19T21:24:55.097Z,12.55
2023-10-19T21:27:24.814Z,12.60
2023-10-19T21:29:57.229Z,12.66
2023-10-19T21:32:30.628Z,12.63
2023-10-19T21:35:00.750Z,12.63
2023-10-19T21:37:28.343Z,12.59
2023-10-19T21:39:55.843Z,12.68
2023-10-19T21:42:23.334Z,12.61
2023-10-19T21:44:50.867Z,12.63
2023-10-19T21:47:19.856Z,12.62
2023-10-19T21:49:50.967Z,12.70
2023-10-19T21:52:24.752Z,12.68
2023-10-19T21:54:57.319Z,12.72
2023-10-19T21:57:31.722Z,12.73
2023-10-19T22:00:00.999Z,12.59
2023-10-19T22:02:30.375Z,12.68
2023-10-19T22:05:04.041Z,12.52
2023-10-19T22:07:39.353Z,12.68
2023-10-19T22:10:07.789Z,12.71
2023-10-19T22:12:35.359Z,12.65
2023-10-19T22:15:08.109Z,12.44
2023-10-19T22:17:35.719Z,12.67
2023-10-19T22:20:08.243Z,12.71
2023-10-19T22:22:47.834Z,12.72
2023-10-19T22:25:22.070Z,12.42
2023-10-19T22:27:51.871Z,12.41
2023-10-19T22:30:20.061Z,12.44
2023-10-19T22:32:47.797Z,12.29
2023-10-19T22:35:16.000Z,12.70
2023-10-19T22:37:43.608Z,12.48
2023-10-19T22:40:11.879Z,12.55
2023-10-19T22:42:42.021Z,12.45
2023-10-19T22:45:13.514Z,12.54
2023-10-19T22:47:43.609Z,12.00
2023-10-19T22:50:12.126Z,12.36
2023-10-19T22:52:40.030Z,12.49
2023-10-19T22:55:09.719Z,12.37
2023-10-19T22:57:39.570Z,12.28
2023-10-19T23:00:15.226Z,12.27
2023-10-19T23:02:47.033Z,12.12
2023-10-19T23:05:16.852Z,12.18
2023-10-19T23:07:50.211Z,12.32
2023-10-19T23:10:20.573Z,12.36
2023-10-19T23:12:51.840Z,12.33
2023-10-19T23:15:34.108Z,12.40
2023-10-19T23:18:04.045Z,12.53
2023-10-19T23:20:37.719Z,12.51
2023-10-19T23:23:12.270Z,12.56
2023-10-19T23:25:44.346Z,12.47
2023-10-19T23:28:16.279Z,12.50
2023-10-19T23:30:46.155Z,12.39
2023-10-19T23:33:16.196Z,12.45
2023-10-19T23:35:47.704Z,12.38
2023-10-19T23:38:20.935Z,12.31
2023-10-19T23:40:49.374Z,12.26
2023-10-19T23:43:21.183Z,12.30
2023-10-19T23:45:54.239Z,12.11
2023-10-19T23:48:21.764Z,12.21
2023-10-19T23:50:51.422Z,12.30
2023-10-19T23:53:20.541Z,12.34
2023-10-19T23:55:48.336Z,12.23
2023-10-19T23:58:16.139Z,12.27
